Vb Ouragan — FIVA — position and weather

sailwx.info

Track history (hours):
 
Tides and Currents Weather Stations Pressure Air Temp Water Temp Dewpoint Dewpoint Depression Visibility Wind Speed Wind Dir Waves Ship Positions

Vb Ouragan

Last reported at 2017-Sep-25 01:00 UTC. Time now 2017-Sep-25 01:11 UTC.
Position N 47°18' W 002°06'.

Length 30 m; draft 5 m.

Type: Tug. MMSI: 228067800.

Date/timePositionNaut miles runAvg speedWind from/ knotsBaromVisibWave heightAir tempDewpointWater temp
2017-Sep-25 01:00N 47°18' W 002°06'3 6.2
2017-Sep-25 00:30N 47°17' W 002°10'2 3.5
2017-Sep-25 00:00N 47°16' W 002°12'0 0.0
2017-Sep-24 23:30N 47°16' W 002°12'0 0.0
2017-Sep-24 23:00N 47°16' W 002°12'0 0.0
2017-Sep-24 22:30N 47°16' W 002°12'0 0.0
2017-Sep-24 22:00N 47°16' W 002°12'0 0.0
2017-Sep-24 21:30N 47°16' W 002°12'0 0.0
2017-Sep-24 21:00N 47°16' W 002°12'0 0.0
2017-Sep-24 20:30N 47°16' W 002°12'0 0.4
2017-Sep-24 19:59N 47°16' W 002°12'1 1.2
2017-Sep-24 19:30N 47°17' W 002°12'0 0.2
2017-Sep-24 19:00N 47°17' W 002°12'1 1.1
2017-Sep-24 18:30N 47°16' W 002°12'0 0.1
2017-Sep-24 17:58N 47°16' W 002°12'1 2.7
2017-Sep-24 17:30N 47°15' W 002°13'0 0.3
2017-Sep-24 17:00N 47°15' W 002°13'1 1.9
2017-Sep-24 16:30N 47°16' W 002°12'0 0.0
2017-Sep-24 16:00N 47°16' W 002°12'0 0.0
2017-Sep-24 15:29N 47°16' W 002°12'0 0.0
2017-Sep-24 15:00N 47°16' W 002°12'0 0.0
2017-Sep-24 14:28N 47°16' W 002°12'1 1.6
2017-Sep-24 14:00N 47°16' W 002°11'4 7.4
2017-Sep-24 13:31N 47°18' W 002°06'0 0.4
2017-Sep-24 13:00N 47°18' W 002°06'0 0.0
2017-Sep-24 12:30N 47°18' W 002°06'3 6.0
2017-Sep-24 12:00N 47°17' W 002°10'2 3.3
2017-Sep-24 11:30N 47°16' W 002°12'0 0.0
2017-Sep-24 11:00N 47°16' W 002°12'0 0.0
2017-Sep-24 10:29N 47°16' W 002°12'0 0.0
2017-Sep-24 10:00N 47°16' W 002°12'0 0.0
2017-Sep-24 09:30N 47°16' W 002°12'0 0.0
2017-Sep-24 09:00N 47°16' W 002°12'0 0.0
2017-Sep-24 08:30N 47°16' W 002°12'0 0.0
2017-Sep-24 08:00N 47°16' W 002°12'0 0.0
2017-Sep-24 07:30N 47°16' W 002°12'0 0.0
2017-Sep-24 07:00N 47°16' W 002°12'0 0.0
2017-Sep-24 06:30N 47°16' W 002°12'0 0.0
2017-Sep-24 06:00N 47°16' W 002°12'0 0.0
2017-Sep-24 05:30N 47°16' W 002°12'0 0.0
2017-Sep-24 05:00N 47°16' W 002°12'0 0.0
2017-Sep-24 04:30N 47°16' W 002°12'0 0.0
2017-Sep-24 04:00N 47°16' W 002°12'0 0.0
2017-Sep-24 03:30N 47°16' W 002°12'0 0.0
2017-Sep-24 02:59N 47°16' W 002°12'0 0.0
2017-Sep-24 02:30N 47°16' W 002°12'0 0.0
2017-Sep-24 02:00N 47°16' W 002°12'0 0.0
2017-Sep-24 01:30N 47°16' W 002°12'0 0.0
2017-Sep-24 01:00N 47°16' W 002°12'0 0.0
2017-Sep-24 00:30N 47°16' W 002°12'0 0.0
2017-Sep-24 00:00N 47°16' W 002°12'0 0.0
2017-Sep-23 23:30N 47°16' W 002°12'0 0.0
2017-Sep-23 23:00N 47°16' W 002°12'0 0.0
2017-Sep-23 22:30N 47°16' W 002°12'5 9.4
2017-Sep-23 22:00N 47°18' W 002°06'612.6
2017-Sep-23 21:30N 47°17' W 001°57'713.2
2017-Sep-23 21:00N 47°13' W 001°49'613.0
2017-Sep-23 20:30N 47°12' W 001°40'2 4.3
2017-Sep-23 20:00N 47°12' W 001°37'25 0.6
2017-Sep-22 02:01N 47°16' W 002°12'0 0.0
2017-Sep-22 01:30N 47°16' W 002°12'0 0.0
2017-Sep-22 01:00N 47°16' W 002°12'0 0.0
2017-Sep-22 00:31N 47°16' W 002°12'0 0.0
2017-Sep-22 00:00N 47°16' W 002°12'0 0.0
2017-Sep-21 23:25N 47°16' W 002°12'0 0.0
2017-Sep-21 22:57N 47°16' W 002°12'0 0.0
2017-Sep-21 22:30N 47°16' W 002°12'0 0.0
2017-Sep-21 21:39N 47°16' W 002°12'0 0.0
2017-Sep-21 21:30N 47°16' W 002°12'0 0.0
2017-Sep-21 21:00N 47°16' W 002°12'0 0.0
2017-Sep-21 20:29N 47°16' W 002°12'0 0.0
2017-Sep-21 20:00N 47°16' W 002°12'0 0.0
2017-Sep-21 19:30N 47°16' W 002°12'0 0.0
2017-Sep-21 19:00N 47°16' W 002°12'0 0.0
2017-Sep-21 18:30N 47°16' W 002°12'0 0.0
2017-Sep-21 18:00N 47°16' W 002°12'0 0.0
2017-Sep-21 17:31N 47°16' W 002°12'0 0.0
2017-Sep-21 17:01N 47°16' W 002°12'0 0.0
2017-Sep-21 16:30N 47°16' W 002°12'0 0.0
2017-Sep-21 16:00N 47°16' W 002°12'0 0.0
2017-Sep-21 15:30N 47°16' W 002°12'0 0.0
2017-Sep-21 14:58N 47°16' W 002°12'0 0.0
2017-Sep-21 14:27N 47°16' W 002°12'0 0.0
2017-Sep-21 14:01N 47°16' W 002°12'0 0.0
2017-Sep-21 13:31N 47°16' W 002°12'0 0.0
2017-Sep-21 13:00N 47°16' W 002°12'0 0.0
2017-Sep-21 12:30N 47°16' W 002°12'0 0.0
2017-Sep-21 12:00N 47°16' W 002°12'0 0.0
2017-Sep-21 10:35N 47°16' W 002°12'0 0.0
2017-Sep-21 09:32N 47°16' W 002°12'0 0.0
2017-Sep-21 09:28N 47°16' W 002°12'0 0.0
2017-Sep-21 08:59N 47°16' W 002°12'0 0.0
2017-Sep-21 08:27N 47°16' W 002°12'0 0.0
2017-Sep-21 08:00N 47°16' W 002°12'0 0.0
2017-Sep-21 07:30N 47°16' W 002°12'0 0.0
2017-Sep-21 07:01N 47°16' W 002°12'510.7
2017-Sep-21 06:31N 47°18' W 002°05'0 0.0
2017-Sep-21 06:00N 47°18' W 002°05'0 0.0
2017-Sep-21 05:30N 47°18' W 002°05'0 0.0
2017-Sep-21 05:00N 47°18' W 002°05'0 0.0
2017-Sep-21 04:30N 47°18' W 002°05'0 0.0
2017-Sep-21 04:00N 47°18' W 002°05'0 0.0
2017-Sep-21 03:30N 47°18' W 002°05'0 0.0
2017-Sep-21 03:00N 47°18' W 002°05'0 0.0
2017-Sep-21 02:30N 47°18' W 002°05'0 0.0
2017-Sep-21 02:00N 47°18' W 002°05'0 0.0
2017-Sep-21 01:30N 47°18' W 002°05'0 0.0
2017-Sep-21 01:00N 47°18' W 002°05'0 0.0
2017-Sep-21 00:30N 47°18' W 002°05'0 0.0
2017-Sep-21 00:00N 47°18' W 002°05'0 0.0
2017-Sep-20 23:30N 47°18' W 002°05'0 0.0
2017-Sep-20 23:00N 47°18' W 002°05'0 0.0
2017-Sep-20 22:30N 47°18' W 002°05'0 0.0
2017-Sep-20 22:00N 47°18' W 002°05'0 0.0
2017-Sep-20 21:30N 47°18' W 002°05'0 0.0
2017-Sep-20 21:00N 47°18' W 002°05'0 0.0
2017-Sep-20 20:30N 47°18' W 002°05'0 0.0
2017-Sep-20 20:01N 47°18' W 002°05'0 0.0
2017-Sep-20 19:30N 47°18' W 002°05'0 0.0
2017-Sep-20 19:00N 47°18' W 002°05'0 0.0
2017-Sep-20 18:30N 47°18' W 002°05'0 0.0
2017-Sep-20 18:00N 47°18' W 002°05'0 0.0
2017-Sep-20 17:30N 47°18' W 002°05'0 0.0
2017-Sep-20 17:00N 47°18' W 002°05'0 0.0
2017-Sep-20 16:30N 47°18' W 002°05'0 0.0
2017-Sep-20 16:00N 47°18' W 002°05'0 0.0
2017-Sep-20 15:30N 47°18' W 002°05'0 0.0
2017-Sep-20 15:00N 47°18' W 002°05'0 0.0
2017-Sep-20 14:00N 47°18' W 002°05'0 0.0
2017-Sep-20 13:30N 47°18' W 002°05'0 0.0
2017-Sep-20 13:00N 47°18' W 002°05'0 0.0
2017-Sep-20 12:30N 47°18' W 002°05'0 0.0
2017-Sep-20 12:00N 47°18' W 002°05'0 0.0
2017-Sep-20 11:30N 47°18' W 002°05'0 0.0
2017-Sep-20 11:00N 47°18' W 002°05'0 0.0
2017-Sep-20 10:30N 47°18' W 002°05'0 0.0
2017-Sep-20 10:00N 47°18' W 002°05'0 0.0
2017-Sep-20 09:30N 47°18' W 002°05'0 0.0
2017-Sep-20 09:00N 47°18' W 002°05'0 0.0
2017-Sep-20 08:30N 47°18' W 002°05'0 0.0
2017-Sep-20 08:00N 47°18' W 002°05'0 0.0
2017-Sep-20 07:31N 47°18' W 002°05'0 0.0
2017-Sep-20 07:00N 47°18' W 002°05'0 0.0
2017-Sep-20 06:30N 47°18' W 002°05'0 0.0
2017-Sep-20 06:00N 47°18' W 002°05'0 0.0
2017-Sep-20 05:30N 47°18' W 002°05'0 0.0
2017-Sep-20 05:00N 47°18' W 002°05'1 1.1
2017-Sep-20 04:30N 47°18' W 002°04'1 2.4
2017-Sep-20 04:00N 47°18' W 002°06'1 1.8
2017-Sep-20 03:30N 47°18' W 002°05'3 6.4
2017-Sep-20 03:00N 47°18' W 002°09'0 0.2
2017-Sep-20 02:31N 47°18' W 002°09'1 2.9
2017-Sep-20 02:00N 47°17' W 002°11'1 2.3
2017-Sep-20 01:31N 47°16' W 002°12'0 0.0
2017-Sep-20 01:01N 47°16' W 002°12'0 0.0
2017-Sep-20 00:31N 47°16' W 002°12'0 0.0
2017-Sep-20 00:01N 47°16' W 002°12'0 0.0
2017-Sep-19 23:31N 47°16' W 002°12'0 0.0
2017-Sep-19 23:01N 47°16' W 002°12'0 0.0
2017-Sep-19 22:30N 47°16' W 002°12'0 0.0
2017-Sep-19 22:00N 47°16' W 002°12'0 0.0
2017-Sep-19 21:30N 47°16' W 002°12'0 0.0
2017-Sep-19 21:01N 47°16' W 002°12'0 0.0
2017-Sep-19 20:30N 47°16' W 002°12'0 0.0
2017-Sep-19 20:00N 47°16' W 002°12'0 0.0
2017-Sep-19 19:30N 47°16' W 002°12'0 0.0
2017-Sep-19 19:00N 47°16' W 002°12'0 0.0
2017-Sep-19 18:30N 47°16' W 002°12'0 0.0
2017-Sep-19 18:00N 47°16' W 002°12'0 0.0
2017-Sep-19 17:30N 47°16' W 002°12'0 0.0
2017-Sep-19 17:00N 47°16' W 002°12'0 0.0
2017-Sep-19 16:30N 47°16' W 002°12'0 0.0
2017-Sep-19 16:01N 47°16' W 002°12'0 0.0
2017-Sep-19 15:30N 47°16' W 002°12'0 0.0
2017-Sep-19 15:00N 47°16' W 002°12'0 0.0
2017-Sep-19 10:34N 47°16' W 002°12'0 0.0
2017-Sep-19 10:30N 47°16' W 002°12'0 0.0
2017-Sep-19 08:04N 47°16' W 002°12'0 0.0
2017-Sep-19 08:01N 47°16' W 002°12'0 0.0
2017-Sep-19 07:31N 47°16' W 002°12'0 0.0
2017-Sep-19 07:00N 47°16' W 002°12'0 0.0
2017-Sep-19 06:30N 47°16' W 002°12'0 0.0
2017-Sep-19 06:00N 47°16' W 002°12'0 0.0
2017-Sep-19 05:30N 47°16' W 002°12'0 0.0
2017-Sep-19 05:01N 47°16' W 002°12'0 0.0
2017-Sep-19 04:31N 47°16' W 002°12'1 2.3
2017-Sep-19 04:00N 47°17' W 002°11'1 2.8
2017-Sep-19 03:31N 47°18' W 002°09'0 0.1
2017-Sep-19 03:01N 47°18' W 002°09'2 3.2
2017-Sep-19 02:30N 47°17' W 002°11'1 1.9
2017-Sep-19 02:01N 47°16' W 002°12'0 0.0
2017-Sep-19 01:30N 47°16' W 002°12'0 0.0
2017-Sep-19 01:00N 47°16' W 002°12'0 0.0
2017-Sep-19 00:31N 47°16' W 002°12'0 0.0
2017-Sep-19 00:01N 47°16' W 002°12'0 0.0
2017-Sep-18 23:30N 47°16' W 002°12'0 0.0
2017-Sep-18 23:00N 47°16' W 002°12'0 0.0
2017-Sep-18 22:31N 47°16' W 002°12'0 0.0
2017-Sep-18 22:00N 47°16' W 002°12'0 0.0
2017-Sep-18 21:30N 47°16' W 002°12'0 0.0
2017-Sep-18 21:01N 47°16' W 002°12'0 0.0
2017-Sep-18 20:31N 47°16' W 002°12'0 0.0
2017-Sep-18 20:00N 47°16' W 002°12'0 0.0
2017-Sep-18 19:31N 47°16' W 002°12'0 0.0
2017-Sep-18 19:00N 47°16' W 002°12'0 0.0
2017-Sep-18 18:30N 47°16' W 002°12'0 0.0
2017-Sep-18 18:01N 47°16' W 002°12'0 0.0
2017-Sep-18 17:31N 47°16' W 002°12'0 0.0
2017-Sep-18 17:00N 47°16' W 002°12'0 0.0
2017-Sep-18 16:30N 47°16' W 002°12'0 0.0
2017-Sep-18 16:00N 47°16' W 002°12'0 0.0
2017-Sep-18 15:30N 47°16' W 002°12'0 0.0
2017-Sep-18 14:59N 47°16' W 002°12'0 0.0
2017-Sep-18 14:28N 47°16' W 002°12'0 0.0
2017-Sep-18 13:57N 47°16' W 002°12'0 0.0
2017-Sep-18 13:30N 47°16' W 002°12'0 0.0
2017-Sep-18 12:58N 47°16' W 002°12'0 0.0
2017-Sep-18 12:30N 47°16' W 002°12'0 0.0
2017-Sep-18 12:00N 47°16' W 002°12'0 0.0
2017-Sep-18 11:30N 47°16' W 002°12'0 0.0
2017-Sep-18 11:00N 47°16' W 002°12'0 0.0
2017-Sep-18 10:30N 47°16' W 002°12'0 0.0
2017-Sep-18 10:01N 47°16' W 002°12'0 0.0
2017-Sep-18 09:31N 47°16' W 002°12'0 0.0
2017-Sep-18 09:01N 47°16' W 002°12'0 0.0
2017-Sep-18 08:31N 47°16' W 002°12'0 0.0
2017-Sep-18 08:00N 47°16' W 002°12'0 0.0
2017-Sep-18 07:30N 47°16' W 002°12'0 0.0
2017-Sep-18 07:00N 47°16' W 002°12'0 0.0
2017-Sep-18 06:30N 47°16' W 002°12'0 0.0
2017-Sep-18 06:00N 47°16' W 002°12'0 0.0
2017-Sep-18 05:30N 47°16' W 002°12'0 0.0
2017-Sep-18 05:00N 47°16' W 002°12'0 0.0
2017-Sep-18 04:30N 47°16' W 002°12'0 0.0
2017-Sep-18 04:01N 47°16' W 002°12'2 4.2
2017-Sep-18 03:31N 47°17' W 002°10'3 5.4
2017-Sep-18 03:01N 47°18' W 002°06'0 0.1
2017-Sep-18 02:31N 47°18' W 002°06'0 0.0
2017-Sep-18 02:00N 47°18' W 002°06'1 1.3
2017-Sep-18 01:30N 47°18' W 002°05'0 0.0
2017-Sep-18 01:00N 47°18' W 002°05'0 0.0
2017-Sep-18 00:31N 47°18' W 002°05'0 0.0
2017-Sep-18 00:01N 47°18' W 002°05'0 0.0
2017-Sep-17 23:30N 47°18' W 002°05'0 0.0
2017-Sep-17 23:00N 47°18' W 002°05'0 0.0
2017-Sep-17 22:30N 47°18' W 002°05'0 0.0
2017-Sep-17 22:00N 47°18' W 002°05'0 0.0
2017-Sep-17 21:30N 47°18' W 002°05'0 0.2
2017-Sep-17 21:01N 47°18' W 002°05'3 5.7
2017-Sep-17 20:30N 47°18' W 002°09'1 1.5
2017-Sep-17 20:00N 47°17' W 002°10'2 3.8
2017-Sep-17 19:30N 47°16' W 002°12'0 0.0
2017-Sep-17 19:01N 47°16' W 002°12'0 0.0
2017-Sep-17 18:30N 47°16' W 002°12'0 0.0
2017-Sep-17 18:01N 47°16' W 002°12'0 0.0
2017-Sep-17 17:31N 47°16' W 002°12'0 0.0
2017-Sep-17 17:01N 47°16' W 002°12'0 0.0
2017-Sep-17 16:30N 47°16' W 002°12'0 0.4
2017-Sep-17 15:49N 47°16' W 002°12'1 1.9
2017-Sep-17 15:30N 47°17' W 002°12'1 1.2
2017-Sep-17 15:00N 47°16' W 002°12'0 0.5
2017-Sep-17 14:28N 47°16' W 002°12'0 0.1
2017-Sep-17 14:00N 47°16' W 002°12'0 0.0
2017-Sep-17 13:30N 47°16' W 002°12'0 0.0
2017-Sep-17 13:01N 47°16' W 002°12'0 0.0
2017-Sep-17 12:30N 47°16' W 002°12'0 0.0
2017-Sep-17 12:00N 47°16' W 002°12'0 0.0
2017-Sep-17 11:30N 47°16' W 002°12'2 4.7
2017-Sep-17 11:00N 47°18' W 002°09'0 0.5
2017-Sep-17 10:30N 47°18' W 002°09'1 1.2
2017-Sep-17 10:01N 47°17' W 002°10'2 4.3
2017-Sep-17 09:30N 47°18' W 002°07'0 0.1
2017-Sep-17 09:00N 47°18' W 002°07'2 4.6
2017-Sep-17 08:30N 47°17' W 002°10'2 3.6
2017-Sep-17 08:00N 47°16' W 002°12'0 0.0
2017-Sep-17 07:30N 47°16' W 002°12'0 0.0
2017-Sep-17 07:00N 47°16' W 002°12'0 0.0
2017-Sep-17 06:30N 47°16' W 002°12'0 0.0
2017-Sep-17 06:00N 47°16' W 002°12'0 0.0
2017-Sep-17 05:30N 47°16' W 002°12'0 0.0
2017-Sep-17 05:00N 47°16' W 002°12'0 0.0
2017-Sep-17 04:31N 47°16' W 002°12'0 0.0
2017-Sep-17 04:00N 47°16' W 002°12'0 0.0
2017-Sep-17 03:31N 47°16' W 002°12'0 0.0
2017-Sep-17 03:00N 47°16' W 002°12'0 0.0
2017-Sep-17 02:31N 47°16' W 002°12'0 0.0
2017-Sep-17 02:00N 47°16' W 002°12'0 0.0
2017-Sep-17 01:30N 47°16' W 002°12'0 0.0
2017-Sep-17 01:01N 47°16' W 002°12'0 0.0
2017-Sep-17 00:30N 47°16' W 002°12'0 0.0
2017-Sep-17 00:00N 47°16' W 002°12'0 0.0
2017-Sep-16 23:30N 47°16' W 002°12'0 0.0
2017-Sep-16 23:00N 47°16' W 002°12'0 0.0
2017-Sep-16 22:30N 47°16' W 002°12'0 0.0
2017-Sep-16 22:00N 47°16' W 002°12'0 0.0
2017-Sep-16 21:31N 47°16' W 002°12'0 0.0
2017-Sep-16 21:01N 47°16' W 002°12'0 0.0
2017-Sep-16 20:31N 47°16' W 002°12'0 0.0
2017-Sep-16 20:00N 47°16' W 002°12'0 0.0
2017-Sep-16 19:30N 47°16' W 002°12'0 0.0
2017-Sep-16 19:01N 47°16' W 002°12'0 0.0
2017-Sep-16 18:30N 47°16' W 002°12'0 0.0
2017-Sep-16 18:01N 47°16' W 002°12'0 0.0
2017-Sep-16 17:31N 47°16' W 002°12'0 0.0
2017-Sep-16 17:01N 47°16' W 002°12'0 0.0
2017-Sep-16 16:30N 47°16' W 002°12'0 0.0
2017-Sep-16 16:00N 47°16' W 002°12'0 0.0
2017-Sep-16 15:31N 47°16' W 002°12'0 0.0
2017-Sep-16 15:01N 47°16' W 002°12'0 0.0
2017-Sep-16 14:31N 47°16' W 002°12'0 0.0
2017-Sep-16 14:00N 47°16' W 002°12'4 8.4
2017-Sep-16 13:30N 47°18' W 002°07'1 2.1
2017-Sep-16 13:00N 47°18' W 002°05'1 1.1
2017-Sep-16 12:30N 47°18' W 002°06'5 9.4
2017-Sep-16 12:00N 47°16' W 002°12'0 0.1
2017-Sep-16 11:30N 47°16' W 002°12'0 0.0
2017-Sep-16 11:00N 47°16' W 002°12'0 0.0
2017-Sep-16 10:30N 47°16' W 002°12'0 0.0
2017-Sep-16 10:01N 47°16' W 002°12'0 0.0
2017-Sep-16 09:30N 47°16' W 002°12'0 0.0
2017-Sep-16 09:00N 47°16' W 002°12'0 0.0
2017-Sep-16 08:31N 47°16' W 002°12'0 0.0
2017-Sep-16 08:01N 47°16' W 002°12'0 0.0
2017-Sep-16 07:30N 47°16' W 002°12'1 1.8
2017-Sep-16 07:01N 47°17' W 002°11'2 3.6
2017-Sep-16 06:28N 47°18' W 002°09'0 0.0
2017-Sep-16 06:00N 47°18' W 002°09'0 0.0
2017-Sep-16 05:29N 47°18' W 002°09'0 0.0
2017-Sep-16 05:00N 47°18' W 002°09'0 0.0
2017-Sep-16 04:31N 47°18' W 002°09'0 0.0
2017-Sep-16 04:00N 47°18' W 002°09'0 0.0
2017-Sep-16 03:30N 47°18' W 002°09'0 0.0
2017-Sep-16 03:00N 47°18' W 002°09'0 0.0
2017-Sep-16 02:30N 47°18' W 002°09'0 0.0
2017-Sep-16 02:01N 47°18' W 002°09'0 0.0
2017-Sep-16 01:31N 47°18' W 002°09'0 0.0
2017-Sep-16 01:00N 47°18' W 002°09'0 0.0
2017-Sep-16 00:30N 47°18' W 002°09'0 0.0
2017-Sep-16 00:01N 47°18' W 002°09'0 0.0
2017-Sep-15 23:30N 47°18' W 002°09'0 0.0
2017-Sep-15 23:01N 47°18' W 002°09'0 0.0
2017-Sep-15 22:30N 47°18' W 002°09'0 0.0
2017-Sep-15 22:00N 47°18' W 002°09'0 0.0
2017-Sep-15 21:31N 47°18' W 002°09'0 0.0
2017-Sep-15 21:00N 47°18' W 002°09'0 0.0
2017-Sep-15 20:30N 47°18' W 002°09'0 0.0
2017-Sep-15 20:00N 47°18' W 002°09'0 0.0
2017-Sep-15 19:30N 47°18' W 002°09'0 0.0
2017-Sep-15 19:00N 47°18' W 002°09'0 0.0
2017-Sep-15 18:31N 47°18' W 002°09'0 0.0
2017-Sep-15 18:00N 47°18' W 002°09'0 0.0
2017-Sep-15 17:30N 47°18' W 002°09'0 0.0
2017-Sep-15 17:00N 47°18' W 002°09'0 0.0
2017-Sep-15 16:31N 47°18' W 002°09'0 0.0
2017-Sep-15 16:00N 47°18' W 002°09'0 0.0
2017-Sep-15 15:30N 47°18' W 002°09'0 0.0
2017-Sep-15 14:52N 47°18' W 002°09'0 0.0
2017-Sep-15 14:31N 47°18' W 002°09'0 0.0
2017-Sep-15 14:00N 47°18' W 002°09'2 3.5
2017-Sep-15 13:31N 47°18' W 002°06'0 0.1
2017-Sep-15 13:00N 47°18' W 002°06'1 1.5
2017-Sep-15 12:29N 47°18' W 002°08'3 6.2
2017-Sep-15 12:00N 47°16' W 002°11'2 0.9
2017-Sep-15 09:38N 47°18' W 002°09'0 0.0
2017-Sep-15 09:28N 47°18' W 002°09'0 0.0
2017-Sep-15 09:00N 47°18' W 002°09'0 0.0
2017-Sep-15 08:30N 47°18' W 002°09'0 0.0
2017-Sep-15 08:01N 47°18' W 002°09'0 0.0
2017-Sep-15 07:30N 47°18' W 002°09'3 5.7
2017-Sep-15 07:00N 47°16' W 002°12'0 0.0
2017-Sep-15 06:30N 47°16' W 002°12'0 0.0
2017-Sep-15 06:00N 47°16' W 002°12'0 0.0
2017-Sep-15 05:31N 47°16' W 002°12'0 0.0
2017-Sep-15 05:00N 47°16' W 002°12'0 0.0
2017-Sep-15 04:30N 47°16' W 002°12'0 0.0
2017-Sep-15 04:01N 47°16' W 002°12'0 0.0
2017-Sep-15 03:30N 47°16' W 002°12'0 0.0
2017-Sep-15 03:00N 47°16' W 002°12'0 0.0
2017-Sep-15 02:31N 47°16' W 002°12'0 0.0
2017-Sep-15 02:00N 47°16' W 002°12'0 0.0
2017-Sep-15 01:30N 47°16' W 002°12'  
Track history (hours):
 
Tides and Currents Weather Stations Pressure Air Temp Water Temp Dewpoint Dewpoint Depression Visibility Wind Speed Wind Dir Waves Ship Positions

Vb Ouragan

Last reported at 2017-Sep-25 01:00 UTC. Time now 2017-Sep-25 01:11 UTC.
Position N 47°18' W 002°06'.

Length 30 m; draft 5 m.

Type: Tug. MMSI: 228067800.

Date/timePositionNaut miles runAvg speedWind from/ knotsBaromVisibWave heightAir tempDewpointWater temp
2017-Sep-25 01:00N 47°18' W 002°06'3 6.2
2017-Sep-25 00:30N 47°17' W 002°10'2 3.5
2017-Sep-25 00:00N 47°16' W 002°12'0 0.0
2017-Sep-24 23:30N 47°16' W 002°12'0 0.0
2017-Sep-24 23:00N 47°16' W 002°12'0 0.0
2017-Sep-24 22:30N 47°16' W 002°12'0 0.0
2017-Sep-24 22:00N 47°16' W 002°12'0 0.0
2017-Sep-24 21:30N 47°16' W 002°12'0 0.0
2017-Sep-24 21:00N 47°16' W 002°12'0 0.0
2017-Sep-24 20:30N 47°16' W 002°12'0 0.4
2017-Sep-24 19:59N 47°16' W 002°12'1 1.2
2017-Sep-24 19:30N 47°17' W 002°12'0 0.2
2017-Sep-24 19:00N 47°17' W 002°12'1 1.1
2017-Sep-24 18:30N 47°16' W 002°12'0 0.1
2017-Sep-24 17:58N 47°16' W 002°12'1 2.7
2017-Sep-24 17:30N 47°15' W 002°13'0 0.3
2017-Sep-24 17:00N 47°15' W 002°13'1 1.9
2017-Sep-24 16:30N 47°16' W 002°12'0 0.0
2017-Sep-24 16:00N 47°16' W 002°12'0 0.0
2017-Sep-24 15:29N 47°16' W 002°12'0 0.0
2017-Sep-24 15:00N 47°16' W 002°12'0 0.0
2017-Sep-24 14:28N 47°16' W 002°12'1 1.6
2017-Sep-24 14:00N 47°16' W 002°11'4 7.4
2017-Sep-24 13:31N 47°18' W 002°06'0 0.4
2017-Sep-24 13:00N 47°18' W 002°06'0 0.0
2017-Sep-24 12:30N 47°18' W 002°06'3 6.0
2017-Sep-24 12:00N 47°17' W 002°10'2 3.3
2017-Sep-24 11:30N 47°16' W 002°12'0 0.0
2017-Sep-24 11:00N 47°16' W 002°12'0 0.0
2017-Sep-24 10:29N 47°16' W 002°12'0 0.0
2017-Sep-24 10:00N 47°16' W 002°12'0 0.0
2017-Sep-24 09:30N 47°16' W 002°12'0 0.0
2017-Sep-24 09:00N 47°16' W 002°12'0 0.0
2017-Sep-24 08:30N 47°16' W 002°12'0 0.0
2017-Sep-24 08:00N 47°16' W 002°12'0 0.0
2017-Sep-24 07:30N 47°16' W 002°12'0 0.0
2017-Sep-24 07:00N 47°16' W 002°12'0 0.0
2017-Sep-24 06:30N 47°16' W 002°12'0 0.0
2017-Sep-24 06:00N 47°16' W 002°12'0 0.0
2017-Sep-24 05:30N 47°16' W 002°12'0 0.0
2017-Sep-24 05:00N 47°16' W 002°12'0 0.0
2017-Sep-24 04:30N 47°16' W 002°12'0 0.0
2017-Sep-24 04:00N 47°16' W 002°12'0 0.0
2017-Sep-24 03:30N 47°16' W 002°12'0 0.0
2017-Sep-24 02:59N 47°16' W 002°12'0 0.0
2017-Sep-24 02:30N 47°16' W 002°12'0 0.0
2017-Sep-24 02:00N 47°16' W 002°12'0 0.0
2017-Sep-24 01:30N 47°16' W 002°12'0 0.0
2017-Sep-24 01:00N 47°16' W 002°12'0 0.0
2017-Sep-24 00:30N 47°16' W 002°12'0 0.0
2017-Sep-24 00:00N 47°16' W 002°12'0 0.0
2017-Sep-23 23:30N 47°16' W 002°12'0 0.0
2017-Sep-23 23:00N 47°16' W 002°12'0 0.0
2017-Sep-23 22:30N 47°16' W 002°12'5 9.4
2017-Sep-23 22:00N 47°18' W 002°06'612.6
2017-Sep-23 21:30N 47°17' W 001°57'713.2
2017-Sep-23 21:00N 47°13' W 001°49'613.0
2017-Sep-23 20:30N 47°12' W 001°40'2 4.3
2017-Sep-23 20:00N 47°12' W 001°37'25 0.6
2017-Sep-22 02:01N 47°16' W 002°12'0 0.0
2017-Sep-22 01:30N 47°16' W 002°12'0 0.0
2017-Sep-22 01:00N 47°16' W 002°12'0 0.0
2017-Sep-22 00:31N 47°16' W 002°12'0 0.0
2017-Sep-22 00:00N 47°16' W 002°12'0 0.0
2017-Sep-21 23:25N 47°16' W 002°12'0 0.0
2017-Sep-21 22:57N 47°16' W 002°12'0 0.0
2017-Sep-21 22:30N 47°16' W 002°12'0 0.0
2017-Sep-21 21:39N 47°16' W 002°12'0 0.0
2017-Sep-21 21:30N 47°16' W 002°12'0 0.0
2017-Sep-21 21:00N 47°16' W 002°12'0 0.0
2017-Sep-21 20:29N 47°16' W 002°12'0 0.0
2017-Sep-21 20:00N 47°16' W 002°12'0 0.0
2017-Sep-21 19:30N 47°16' W 002°12'0 0.0
2017-Sep-21 19:00N 47°16' W 002°12'0 0.0
2017-Sep-21 18:30N 47°16' W 002°12'0 0.0
2017-Sep-21 18:00N 47°16' W 002°12'0 0.0
2017-Sep-21 17:31N 47°16' W 002°12'0 0.0
2017-Sep-21 17:01N 47°16' W 002°12'0 0.0
2017-Sep-21 16:30N 47°16' W 002°12'0 0.0
2017-Sep-21 16:00N 47°16' W 002°12'0 0.0
2017-Sep-21 15:30N 47°16' W 002°12'0 0.0
2017-Sep-21 14:58N 47°16' W 002°12'0 0.0
2017-Sep-21 14:27N 47°16' W 002°12'0 0.0
2017-Sep-21 14:01N 47°16' W 002°12'0 0.0
2017-Sep-21 13:31N 47°16' W 002°12'0 0.0
2017-Sep-21 13:00N 47°16' W 002°12'0 0.0
2017-Sep-21 12:30N 47°16' W 002°12'0 0.0
2017-Sep-21 12:00N 47°16' W 002°12'0 0.0
2017-Sep-21 10:35N 47°16' W 002°12'0 0.0
2017-Sep-21 09:32N 47°16' W 002°12'0 0.0
2017-Sep-21 09:28N 47°16' W 002°12'0 0.0
2017-Sep-21 08:59N 47°16' W 002°12'0 0.0
2017-Sep-21 08:27N 47°16' W 002°12'0 0.0
2017-Sep-21 08:00N 47°16' W 002°12'0 0.0
2017-Sep-21 07:30N 47°16' W 002°12'0 0.0
2017-Sep-21 07:01N 47°16' W 002°12'510.7
2017-Sep-21 06:31N 47°18' W 002°05'0 0.0
2017-Sep-21 06:00N 47°18' W 002°05'0 0.0
2017-Sep-21 05:30N 47°18' W 002°05'0 0.0
2017-Sep-21 05:00N 47°18' W 002°05'0 0.0
2017-Sep-21 04:30N 47°18' W 002°05'0 0.0
2017-Sep-21 04:00N 47°18' W 002°05'0 0.0
2017-Sep-21 03:30N 47°18' W 002°05'0 0.0
2017-Sep-21 03:00N 47°18' W 002°05'0 0.0
2017-Sep-21 02:30N 47°18' W 002°05'0 0.0
2017-Sep-21 02:00N 47°18' W 002°05'0 0.0
2017-Sep-21 01:30N 47°18' W 002°05'0 0.0
2017-Sep-21 01:00N 47°18' W 002°05'0 0.0
2017-Sep-21 00:30N 47°18' W 002°05'0 0.0
2017-Sep-21 00:00N 47°18' W 002°05'0 0.0
2017-Sep-20 23:30N 47°18' W 002°05'0 0.0
2017-Sep-20 23:00N 47°18' W 002°05'0 0.0
2017-Sep-20 22:30N 47°18' W 002°05'0 0.0
2017-Sep-20 22:00N 47°18' W 002°05'0 0.0
2017-Sep-20 21:30N 47°18' W 002°05'0 0.0
2017-Sep-20 21:00N 47°18' W 002°05'0 0.0
2017-Sep-20 20:30N 47°18' W 002°05'0 0.0
2017-Sep-20 20:01N 47°18' W 002°05'0 0.0
2017-Sep-20 19:30N 47°18' W 002°05'0 0.0
2017-Sep-20 19:00N 47°18' W 002°05'0 0.0
2017-Sep-20 18:30N 47°18' W 002°05'0 0.0
2017-Sep-20 18:00N 47°18' W 002°05'0 0.0
2017-Sep-20 17:30N 47°18' W 002°05'0 0.0
2017-Sep-20 17:00N 47°18' W 002°05'0 0.0
2017-Sep-20 16:30N 47°18' W 002°05'0 0.0
2017-Sep-20 16:00N 47°18' W 002°05'0 0.0
2017-Sep-20 15:30N 47°18' W 002°05'0 0.0
2017-Sep-20 15:00N 47°18' W 002°05'0 0.0
2017-Sep-20 14:00N 47°18' W 002°05'0 0.0
2017-Sep-20 13:30N 47°18' W 002°05'0 0.0
2017-Sep-20 13:00N 47°18' W 002°05'0 0.0
2017-Sep-20 12:30N 47°18' W 002°05'0 0.0
2017-Sep-20 12:00N 47°18' W 002°05'0 0.0
2017-Sep-20 11:30N 47°18' W 002°05'0 0.0
2017-Sep-20 11:00N 47°18' W 002°05'0 0.0
2017-Sep-20 10:30N 47°18' W 002°05'0 0.0
2017-Sep-20 10:00N 47°18' W 002°05'0 0.0
2017-Sep-20 09:30N 47°18' W 002°05'0 0.0
2017-Sep-20 09:00N 47°18' W 002°05'0 0.0
2017-Sep-20 08:30N 47°18' W 002°05'0 0.0
2017-Sep-20 08:00N 47°18' W 002°05'0 0.0
2017-Sep-20 07:31N 47°18' W 002°05'0 0.0
2017-Sep-20 07:00N 47°18' W 002°05'0 0.0
2017-Sep-20 06:30N 47°18' W 002°05'0 0.0
2017-Sep-20 06:00N 47°18' W 002°05'0 0.0
2017-Sep-20 05:30N 47°18' W 002°05'0 0.0
2017-Sep-20 05:00N 47°18' W 002°05'1 1.1
2017-Sep-20 04:30N 47°18' W 002°04'1 2.4
2017-Sep-20 04:00N 47°18' W 002°06'1 1.8
2017-Sep-20 03:30N 47°18' W 002°05'3 6.4
2017-Sep-20 03:00N 47°18' W 002°09'0 0.2
2017-Sep-20 02:31N 47°18' W 002°09'1 2.9
2017-Sep-20 02:00N 47°17' W 002°11'1 2.3
2017-Sep-20 01:31N 47°16' W 002°12'0 0.0
2017-Sep-20 01:01N 47°16' W 002°12'0 0.0
2017-Sep-20 00:31N 47°16' W 002°12'0 0.0
2017-Sep-20 00:01N 47°16' W 002°12'0 0.0
2017-Sep-19 23:31N 47°16' W 002°12'0 0.0
2017-Sep-19 23:01N 47°16' W 002°12'0 0.0
2017-Sep-19 22:30N 47°16' W 002°12'0 0.0
2017-Sep-19 22:00N 47°16' W 002°12'0 0.0
2017-Sep-19 21:30N 47°16' W 002°12'0 0.0
2017-Sep-19 21:01N 47°16' W 002°12'0 0.0
2017-Sep-19 20:30N 47°16' W 002°12'0 0.0
2017-Sep-19 20:00N 47°16' W 002°12'0 0.0
2017-Sep-19 19:30N 47°16' W 002°12'0 0.0
2017-Sep-19 19:00N 47°16' W 002°12'0 0.0
2017-Sep-19 18:30N 47°16' W 002°12'0 0.0
2017-Sep-19 18:00N 47°16' W 002°12'0 0.0
2017-Sep-19 17:30N 47°16' W 002°12'0 0.0
2017-Sep-19 17:00N 47°16' W 002°12'0 0.0
2017-Sep-19 16:30N 47°16' W 002°12'0 0.0
2017-Sep-19 16:01N 47°16' W 002°12'0 0.0
2017-Sep-19 15:30N 47°16' W 002°12'0 0.0
2017-Sep-19 15:00N 47°16' W 002°12'0 0.0
2017-Sep-19 10:34N 47°16' W 002°12'0 0.0
2017-Sep-19 10:30N 47°16' W 002°12'0 0.0
2017-Sep-19 08:04N 47°16' W 002°12'0 0.0
2017-Sep-19 08:01N 47°16' W 002°12'0 0.0
2017-Sep-19 07:31N 47°16' W 002°12'0 0.0
2017-Sep-19 07:00N 47°16' W 002°12'0 0.0
2017-Sep-19 06:30N 47°16' W 002°12'0 0.0
2017-Sep-19 06:00N 47°16' W 002°12'0 0.0
2017-Sep-19 05:30N 47°16' W 002°12'0 0.0
2017-Sep-19 05:01N 47°16' W 002°12'0 0.0
2017-Sep-19 04:31N 47°16' W 002°12'1 2.3
2017-Sep-19 04:00N 47°17' W 002°11'1 2.8
2017-Sep-19 03:31N 47°18' W 002°09'0 0.1
2017-Sep-19 03:01N 47°18' W 002°09'2 3.2
2017-Sep-19 02:30N 47°17' W 002°11'1 1.9
2017-Sep-19 02:01N 47°16' W 002°12'0 0.0
2017-Sep-19 01:30N 47°16' W 002°12'0 0.0
2017-Sep-19 01:00N 47°16' W 002°12'0 0.0
2017-Sep-19 00:31N 47°16' W 002°12'0 0.0
2017-Sep-19 00:01N 47°16' W 002°12'0 0.0
2017-Sep-18 23:30N 47°16' W 002°12'0 0.0
2017-Sep-18 23:00N 47°16' W 002°12'0 0.0
2017-Sep-18 22:31N 47°16' W 002°12'0 0.0
2017-Sep-18 22:00N 47°16' W 002°12'0 0.0
2017-Sep-18 21:30N 47°16' W 002°12'0 0.0
2017-Sep-18 21:01N 47°16' W 002°12'0 0.0
2017-Sep-18 20:31N 47°16' W 002°12'0 0.0
2017-Sep-18 20:00N 47°16' W 002°12'0 0.0
2017-Sep-18 19:31N 47°16' W 002°12'0 0.0
2017-Sep-18 19:00N 47°16' W 002°12'0 0.0
2017-Sep-18 18:30N 47°16' W 002°12'0 0.0
2017-Sep-18 18:01N 47°16' W 002°12'0 0.0
2017-Sep-18 17:31N 47°16' W 002°12'0 0.0
2017-Sep-18 17:00N 47°16' W 002°12'0 0.0
2017-Sep-18 16:30N 47°16' W 002°12'0 0.0
2017-Sep-18 16:00N 47°16' W 002°12'0 0.0
2017-Sep-18 15:30N 47°16' W 002°12'0 0.0
2017-Sep-18 14:59N 47°16' W 002°12'0 0.0
2017-Sep-18 14:28N 47°16' W 002°12'0 0.0
2017-Sep-18 13:57N 47°16' W 002°12'0 0.0
2017-Sep-18 13:30N 47°16' W 002°12'0 0.0
2017-Sep-18 12:58N 47°16' W 002°12'0 0.0
2017-Sep-18 12:30N 47°16' W 002°12'0 0.0
2017-Sep-18 12:00N 47°16' W 002°12'0 0.0
2017-Sep-18 11:30N 47°16' W 002°12'0 0.0
2017-Sep-18 11:00N 47°16' W 002°12'0 0.0
2017-Sep-18 10:30N 47°16' W 002°12'0 0.0
2017-Sep-18 10:01N 47°16' W 002°12'0 0.0
2017-Sep-18 09:31N 47°16' W 002°12'0 0.0
2017-Sep-18 09:01N 47°16' W 002°12'0 0.0
2017-Sep-18 08:31N 47°16' W 002°12'0 0.0
2017-Sep-18 08:00N 47°16' W 002°12'0 0.0
2017-Sep-18 07:30N 47°16' W 002°12'0 0.0
2017-Sep-18 07:00N 47°16' W 002°12'0 0.0
2017-Sep-18 06:30N 47°16' W 002°12'0 0.0
2017-Sep-18 06:00N 47°16' W 002°12'0 0.0
2017-Sep-18 05:30N 47°16' W 002°12'0 0.0
2017-Sep-18 05:00N 47°16' W 002°12'0 0.0
2017-Sep-18 04:30N 47°16' W 002°12'0 0.0
2017-Sep-18 04:01N 47°16' W 002°12'2 4.2
2017-Sep-18 03:31N 47°17' W 002°10'3 5.4
2017-Sep-18 03:01N 47°18' W 002°06'0 0.1
2017-Sep-18 02:31N 47°18' W 002°06'0 0.0
2017-Sep-18 02:00N 47°18' W 002°06'1 1.3
2017-Sep-18 01:30N 47°18' W 002°05'0 0.0
2017-Sep-18 01:00N 47°18' W 002°05'0 0.0
2017-Sep-18 00:31N 47°18' W 002°05'0 0.0
2017-Sep-18 00:01N 47°18' W 002°05'0 0.0
2017-Sep-17 23:30N 47°18' W 002°05'0 0.0
2017-Sep-17 23:00N 47°18' W 002°05'0 0.0
2017-Sep-17 22:30N 47°18' W 002°05'0 0.0
2017-Sep-17 22:00N 47°18' W 002°05'0 0.0
2017-Sep-17 21:30N 47°18' W 002°05'0 0.2
2017-Sep-17 21:01N 47°18' W 002°05'3 5.7
2017-Sep-17 20:30N 47°18' W 002°09'1 1.5
2017-Sep-17 20:00N 47°17' W 002°10'2 3.8
2017-Sep-17 19:30N 47°16' W 002°12'0 0.0
2017-Sep-17 19:01N 47°16' W 002°12'0 0.0
2017-Sep-17 18:30N 47°16' W 002°12'0 0.0
2017-Sep-17 18:01N 47°16' W 002°12'0 0.0
2017-Sep-17 17:31N 47°16' W 002°12'0 0.0
2017-Sep-17 17:01N 47°16' W 002°12'0 0.0
2017-Sep-17 16:30N 47°16' W 002°12'0 0.4
2017-Sep-17 15:49N 47°16' W 002°12'1 1.9
2017-Sep-17 15:30N 47°17' W 002°12'1 1.2
2017-Sep-17 15:00N 47°16' W 002°12'0 0.5
2017-Sep-17 14:28N 47°16' W 002°12'0 0.1
2017-Sep-17 14:00N 47°16' W 002°12'0 0.0
2017-Sep-17 13:30N 47°16' W 002°12'0 0.0
2017-Sep-17 13:01N 47°16' W 002°12'0 0.0
2017-Sep-17 12:30N 47°16' W 002°12'0 0.0
2017-Sep-17 12:00N 47°16' W 002°12'0 0.0
2017-Sep-17 11:30N 47°16' W 002°12'2 4.7
2017-Sep-17 11:00N 47°18' W 002°09'0 0.5
2017-Sep-17 10:30N 47°18' W 002°09'1 1.2
2017-Sep-17 10:01N 47°17' W 002°10'2 4.3
2017-Sep-17 09:30N 47°18' W 002°07'0 0.1
2017-Sep-17 09:00N 47°18' W 002°07'2 4.6
2017-Sep-17 08:30N 47°17' W 002°10'2 3.6
2017-Sep-17 08:00N 47°16' W 002°12'0 0.0
2017-Sep-17 07:30N 47°16' W 002°12'0 0.0
2017-Sep-17 07:00N 47°16' W 002°12'0 0.0
2017-Sep-17 06:30N 47°16' W 002°12'0 0.0
2017-Sep-17 06:00N 47°16' W 002°12'0 0.0
2017-Sep-17 05:30N 47°16' W 002°12'0 0.0
2017-Sep-17 05:00N 47°16' W 002°12'0 0.0
2017-Sep-17 04:31N 47°16' W 002°12'0 0.0
2017-Sep-17 04:00N 47°16' W 002°12'0 0.0
2017-Sep-17 03:31N 47°16' W 002°12'0 0.0
2017-Sep-17 03:00N 47°16' W 002°12'0 0.0
2017-Sep-17 02:31N 47°16' W 002°12'0 0.0
2017-Sep-17 02:00N 47°16' W 002°12'0 0.0
2017-Sep-17 01:30N 47°16' W 002°12'0 0.0
2017-Sep-17 01:01N 47°16' W 002°12'0 0.0
2017-Sep-17 00:30N 47°16' W 002°12'0 0.0
2017-Sep-17 00:00N 47°16' W 002°12'0 0.0
2017-Sep-16 23:30N 47°16' W 002°12'0 0.0
2017-Sep-16 23:00N 47°16' W 002°12'0 0.0
2017-Sep-16 22:30N 47°16' W 002°12'0 0.0
2017-Sep-16 22:00N 47°16' W 002°12'0 0.0
2017-Sep-16 21:31N 47°16' W 002°12'0 0.0
2017-Sep-16 21:01N 47°16' W 002°12'0 0.0
2017-Sep-16 20:31N 47°16' W 002°12'0 0.0
2017-Sep-16 20:00N 47°16' W 002°12'0 0.0
2017-Sep-16 19:30N 47°16' W 002°12'0 0.0
2017-Sep-16 19:01N 47°16' W 002°12'0 0.0
2017-Sep-16 18:30N 47°16' W 002°12'0 0.0
2017-Sep-16 18:01N 47°16' W 002°12'0 0.0
2017-Sep-16 17:31N 47°16' W 002°12'0 0.0
2017-Sep-16 17:01N 47°16' W 002°12'0 0.0
2017-Sep-16 16:30N 47°16' W 002°12'0 0.0
2017-Sep-16 16:00N 47°16' W 002°12'0 0.0
2017-Sep-16 15:31N 47°16' W 002°12'0 0.0
2017-Sep-16 15:01N 47°16' W 002°12'0 0.0
2017-Sep-16 14:31N 47°16' W 002°12'0 0.0
2017-Sep-16 14:00N 47°16' W 002°12'4 8.4
2017-Sep-16 13:30N 47°18' W 002°07'1 2.1
2017-Sep-16 13:00N 47°18' W 002°05'1 1.1
2017-Sep-16 12:30N 47°18' W 002°06'5 9.4
2017-Sep-16 12:00N 47°16' W 002°12'0 0.1
2017-Sep-16 11:30N 47°16' W 002°12'0 0.0
2017-Sep-16 11:00N 47°16' W 002°12'0 0.0
2017-Sep-16 10:30N 47°16' W 002°12'0 0.0
2017-Sep-16 10:01N 47°16' W 002°12'0 0.0
2017-Sep-16 09:30N 47°16' W 002°12'0 0.0
2017-Sep-16 09:00N 47°16' W 002°12'0 0.0
2017-Sep-16 08:31N 47°16' W 002°12'0 0.0
2017-Sep-16 08:01N 47°16' W 002°12'0 0.0
2017-Sep-16 07:30N 47°16' W 002°12'1 1.8
2017-Sep-16 07:01N 47°17' W 002°11'2 3.6
2017-Sep-16 06:28N 47°18' W 002°09'0 0.0
2017-Sep-16 06:00N 47°18' W 002°09'0 0.0
2017-Sep-16 05:29N 47°18' W 002°09'0 0.0
2017-Sep-16 05:00N 47°18' W 002°09'0 0.0
2017-Sep-16 04:31N 47°18' W 002°09'0 0.0
2017-Sep-16 04:00N 47°18' W 002°09'0 0.0
2017-Sep-16 03:30N 47°18' W 002°09'0 0.0
2017-Sep-16 03:00N 47°18' W 002°09'0 0.0
2017-Sep-16 02:30N 47°18' W 002°09'0 0.0
2017-Sep-16 02:01N 47°18' W 002°09'0 0.0
2017-Sep-16 01:31N 47°18' W 002°09'0 0.0
2017-Sep-16 01:00N 47°18' W 002°09'0 0.0
2017-Sep-16 00:30N 47°18' W 002°09'0 0.0
2017-Sep-16 00:01N 47°18' W 002°09'0 0.0
2017-Sep-15 23:30N 47°18' W 002°09'0 0.0
2017-Sep-15 23:01N 47°18' W 002°09'0 0.0
2017-Sep-15 22:30N 47°18' W 002°09'0 0.0
2017-Sep-15 22:00N 47°18' W 002°09'0 0.0
2017-Sep-15 21:31N 47°18' W 002°09'0 0.0
2017-Sep-15 21:00N 47°18' W 002°09'0 0.0
2017-Sep-15 20:30N 47°18' W 002°09'0 0.0
2017-Sep-15 20:00N 47°18' W 002°09'0 0.0
2017-Sep-15 19:30N 47°18' W 002°09'0 0.0
2017-Sep-15 19:00N 47°18' W 002°09'0 0.0
2017-Sep-15 18:31N 47°18' W 002°09'0 0.0
2017-Sep-15 18:00N 47°18' W 002°09'0 0.0
2017-Sep-15 17:30N 47°18' W 002°09'0 0.0
2017-Sep-15 17:00N 47°18' W 002°09'0 0.0
2017-Sep-15 16:31N 47°18' W 002°09'0 0.0
2017-Sep-15 16:00N 47°18' W 002°09'0 0.0
2017-Sep-15 15:30N 47°18' W 002°09'0 0.0
2017-Sep-15 14:52N 47°18' W 002°09'0 0.0
2017-Sep-15 14:31N 47°18' W 002°09'0 0.0
2017-Sep-15 14:00N 47°18' W 002°09'2 3.5
2017-Sep-15 13:31N 47°18' W 002°06'0 0.1
2017-Sep-15 13:00N 47°18' W 002°06'1 1.5
2017-Sep-15 12:29N 47°18' W 002°08'3 6.2
2017-Sep-15 12:00N 47°16' W 002°11'2 0.9
2017-Sep-15 09:38N 47°18' W 002°09'0 0.0
2017-Sep-15 09:28N 47°18' W 002°09'0 0.0
2017-Sep-15 09:00N 47°18' W 002°09'0 0.0
2017-Sep-15 08:30N 47°18' W 002°09'0 0.0
2017-Sep-15 08:01N 47°18' W 002°09'0 0.0
2017-Sep-15 07:30N 47°18' W 002°09'3 5.7
2017-Sep-15 07:00N 47°16' W 002°12'0 0.0
2017-Sep-15 06:30N 47°16' W 002°12'0 0.0
2017-Sep-15 06:00N 47°16' W 002°12'0 0.0
2017-Sep-15 05:31N 47°16' W 002°12'0 0.0
2017-Sep-15 05:00N 47°16' W 002°12'0 0.0
2017-Sep-15 04:30N 47°16' W 002°12'0 0.0
2017-Sep-15 04:01N 47°16' W 002°12'0 0.0
2017-Sep-15 03:30N 47°16' W 002°12'0 0.0
2017-Sep-15 03:00N 47°16' W 002°12'0 0.0
2017-Sep-15 02:31N 47°16' W 002°12'0 0.0
2017-Sep-15 02:00N 47°16' W 002°12'0 0.0
2017-Sep-15 01:30N 47°16' W 002°12'  

Dump ship's entire track history